WetterOnline ( https://www.wetteronline.de )

Wetter aktuell Mitterfels

Aktuelles Wetter: Straubing (360m)

6-stündlich | Neueste Meldungen
Ortszeit Temperatur Wetter
Mo, 16.05. 14:00 21.6° C bedeckt
Mo, 16.05. 8:00 15.7° C leicht bewölkt
Mo, 16.05. 2:00 13.3° C wolkig
So, 15.05. 20:00 22.0° C leicht bewölkt
So, 15.05. 14:00 23.1° C fast wolkenlos
So, 15.05. 8:00 13.1° C fast wolkenlos
So, 15.05. 2:00 9.4° C leicht bewölkt
Sa, 14.05. 20:00 21.5° C wolkenlos
Ortszeit Temperatur Wetter
Mo, 16.05. 18:00 22.5° C wolkig
Mo, 16.05. 17:30 22.6° C bedeckt
Mo, 16.05. 17:20 22.6° C bedeckt
Mo, 16.05. 17:10 22.8° C bedeckt
Mo, 16.05. 17:00 22.7° C bewölkt
Mo, 16.05. 16:50 22.7° C bewölkt
Mo, 16.05. 16:30 20.8° C bedeckt
Mo, 16.05. 16:00 21.6° C bewölkt
Mo, 16.05. 15:30 22.9° C wolkig
Mo, 16.05. 15:00 22.8° C bewölkt
Ortszeit Relative Feuchte Sichtweite
Mo, 16.05. 14:00 56% 40 km
Mo, 16.05. 8:00 71% 35 km
Mo, 16.05. 2:00 76% 50 km
So, 15.05. 20:00 42% 50 km
So, 15.05. 14:00 36% 45 km
So, 15.05. 8:00 73% 45 km
So, 15.05. 2:00 83% 50 km
Sa, 14.05. 20:00 36% 55 km
Ortszeit Relative Feuchte Sichtweite
Mo, 16.05. 18:00 55% 45 km
Mo, 16.05. 17:30 52% 45 km
Mo, 16.05. 17:20 52% -
Mo, 16.05. 17:10 53% -
Mo, 16.05. 17:00 52% 45 km
Mo, 16.05. 16:50 52% -
Mo, 16.05. 16:30 60% 55 km
Mo, 16.05. 16:00 57% 60 km
Mo, 16.05. 15:30 53% 50 km
Mo, 16.05. 15:00 54% 45 km
Ortszeit Niederschlagsmenge Niederschlagsart
Mo, 16.05. 14:00 0.1 l/m2 in 6 Std. Regen
Mo, 16.05. 8:00 0.0 l/m2 in 12 Std. -
Mo, 16.05. 2:00 0.0 l/m2 in 6 Std. -
So, 15.05. 20:00 0.0 l/m2 in 12 Std. -
So, 15.05. 14:00 0.0 l/m2 in 6 Std. -
So, 15.05. 8:00 0.0 l/m2 in 12 Std. -
So, 15.05. 2:00 0.0 l/m2 in 6 Std. -
Sa, 14.05. 20:00 0.0 l/m2 in 12 Std. -
Ortszeit Niederschlagsmenge Niederschlagsart
Mo, 16.05. 18:00 0.0 l/m2 in 1 Std. -
Mo, 16.05. 17:30 0.0 l/m2 in 1 Std. -
Mo, 16.05. 17:20 keine Meldung -
Mo, 16.05. 17:10 keine Meldung -
Mo, 16.05. 17:00 0.0 l/m2 in 1 Std. Regen
Mo, 16.05. 16:50 keine Meldung -
Mo, 16.05. 16:30 0.0 l/m2 in 1 Std. -
Mo, 16.05. 16:00 0.1 l/m2 in 1 Std. Regen
Mo, 16.05. 15:30 0.1 l/m2 in 1 Std. Schneeregen
Mo, 16.05. 15:00 0.1 l/m2 in 1 Std. Regen
Ortszeit Stärke Spitze Richtung
km/h Bft. km/h Grad Sektor
Mo, 16.05. 14:00 14 3 25 250° W
Mo, 16.05. 8:00 4 1 11 90° O
Mo, 16.05. 2:00 0 0 14 - -
So, 15.05. 20:00 6 1 22 40° NO
So, 15.05. 14:00 7 2 18 30° NO
So, 15.05. 8:00 4 1 11 40° NO
So, 15.05. 2:00 4 1 11 220° SW
Sa, 14.05. 20:00 7 2 25 220° SW
Ortszeit Stärke Spitze Richtung
km/h Bft. km/h Grad Sektor
Mo, 16.05. 18:00 7 2 18 350° N
Mo, 16.05. 17:30 9 2 19 300° NW
Mo, 16.05. 17:20 9 2 - 300° NW
Mo, 16.05. 17:10 9 2 - 310° NW
Mo, 16.05. 17:00 7 2 29 280° W
Mo, 16.05. 16:50 7 2 - 280° W
Mo, 16.05. 16:30 14 3 29 240° SW
Mo, 16.05. 16:00 14 3 29 260° W
Mo, 16.05. 15:30 9 2 20 270° W
Mo, 16.05. 15:00 13 3 28 270° W
Ortszeit Untergrenze Bedeckung Gattung
total tief tief mittel hoch
Mo, 16.05. 14:00 2700 m 8/8 8/8 - - -
Mo, 16.05. 8:00 7500 m 8/8 0/8 - - -
Mo, 16.05. 2:00 9000 m 8/8 0/8 - - -
So, 15.05. 20:00 8700 m 6/8 0/8 - - -
So, 15.05. 14:00 9000 m 1/8 0/8 - - -
So, 15.05. 8:00 9000 m 1/8 0/8 - - -
So, 15.05. 2:00 10500 m 3/8 0/8 - - -
Sa, 14.05. 20:00 - 0/8 0/8 - - -
Ortszeit Bedeckungsgrad in Achtel und Wolkenuntergrenze
Mo, 16.05. 18:00 4(3000m) 7(9000m)
Mo, 16.05. 17:30 8(3000m)
Mo, 16.05. 17:20 8(3000m)
Mo, 16.05. 17:10 8
Mo, 16.05. 17:00 4(2700m) 8(3300m)
Mo, 16.05. 16:50 4(2700m) 8(3300m)
Mo, 16.05. 16:30 8(2400m)
Mo, 16.05. 16:00 7(2700m) 8(3600m) 8(4200m)
Mo, 16.05. 15:30 1(2100m) 8(3600m) 8(6000m)
Mo, 16.05. 15:00 6(2700m) 8(3300m) 8(4200m)
Ortszeit Luftdruck NN (hPa) Tendenz (hPa in 3 Std.)
Mo, 16.05. 14:00 1018 0,0
Mo, 16.05. 8:00 1019 + 1,2
Mo, 16.05. 2:00 1018 + 0,3
So, 15.05. 20:00 1016 - 0,8
So, 15.05. 14:00 1018 - 1,2
So, 15.05. 8:00 1021 + 0,7
So, 15.05. 2:00 1021 - 0,3
Sa, 14.05. 20:00 1018 - 0,3
Ortszeit Luftdruck NN (hPa) Tendenz (hPa in 3 Std.)
Mo, 16.05. 18:00 1016 - 0,9
Mo, 16.05. 17:30 1017 - 0,8
Mo, 16.05. 17:20 1017 keine Meldung
Mo, 16.05. 17:10 1017 keine Meldung
Mo, 16.05. 17:00 1017 - 1,0
Mo, 16.05. 16:50 1017 keine Meldung
Mo, 16.05. 16:30 1017 - 1,0
Mo, 16.05. 16:00 1017 - 0,8
Mo, 16.05. 15:30 1017 - 1,0
Mo, 16.05. 15:00 1017 - 0,6
Ortszeit Schneehöhe (cm)
Mo, 16.05. 14:00 0
Mo, 16.05. 8:00 0
Mo, 16.05. 2:00 0
So, 15.05. 20:00 0
So, 15.05. 14:00 0
So, 15.05. 8:00 0
So, 15.05. 2:00 0
Sa, 14.05. 20:00 0
Ortszeit Schneehöhe (cm)
Mo, 16.05. 18:00 0
Mo, 16.05. 17:30 0
Mo, 16.05. 17:20 0
Mo, 16.05. 17:10 0
Mo, 16.05. 17:00 0
Mo, 16.05. 16:50 0
Mo, 16.05. 16:30 0
Mo, 16.05. 16:00 0
Mo, 16.05. 15:30 0
Mo, 16.05. 15:00 0
Link zu dieser Seite / Seite empfehlen

Das Wetter in ...